sensor_id;sensor_type;location;lat;lon;timestamp;pressure;altitude;pressure_sealevel;temperature;humidity
14966;BME280;7577;45.226;5.798;2023-06-22T00:00:58;98883.00;;;30.79;50.42
14966;BME280;7577;45.226;5.798;2023-06-22T00:03:29;98880.97;;;30.80;50.37
14966;BME280;7577;45.226;5.798;2023-06-22T00:05:59;98881.37;;;30.78;50.32
14966;BME280;7577;45.226;5.798;2023-06-22T00:08:29;98882.77;;;30.78;50.33
14966;BME280;7577;45.226;5.798;2023-06-22T00:11:00;98869.92;;;30.77;50.29
14966;BME280;7577;45.226;5.798;2023-06-22T00:13:30;98872.54;;;30.76;50.24
14966;BME280;7577;45.226;5.798;2023-06-22T00:16:00;98873.75;;;30.75;50.22
14966;BME280;7577;45.226;5.798;2023-06-22T00:18:30;98884.38;;;30.76;50.20
14966;BME280;7577;45.226;5.798;2023-06-22T00:21:00;98881.37;;;30.75;50.14
14966;BME280;7577;45.226;5.798;2023-06-22T00:23:30;98866.30;;;30.73;50.15
14966;BME280;7577;45.226;5.798;2023-06-22T00:28:41;98858.87;;;30.75;50.13
14966;BME280;7577;45.226;5.798;2023-06-22T00:31:11;98858.48;;;30.73;50.09
14966;BME280;7577;45.226;5.798;2023-06-22T00:36:19;98853.64;;;30.73;50.07
14966;BME280;7577;45.226;5.798;2023-06-22T00:41:27;98840.79;;;30.72;50.06
14966;BME280;7577;45.226;5.798;2023-06-22T00:43:57;98864.89;;;30.70;50.01
14966;BME280;7577;45.226;5.798;2023-06-22T00:46:27;98862.67;;;30.69;49.98
14966;BME280;7577;45.226;5.798;2023-06-22T00:48:58;98853.25;;;30.68;49.96
14966;BME280;7577;45.226;5.798;2023-06-22T00:51:29;98852.41;;;30.67;49.91
14966;BME280;7577;45.226;5.798;2023-06-22T00:56:37;98847.63;;;30.68;49.89
14966;BME280;7577;45.226;5.798;2023-06-22T00:59:07;98843.55;;;30.65;49.84
14966;BME280;7577;45.226;5.798;2023-06-22T01:01:38;98833.70;;;30.65;49.77
14966;BME280;7577;45.226;5.798;2023-06-22T01:04:09;98837.73;;;30.64;49.76
14966;BME280;7577;45.226;5.798;2023-06-22T01:06:43;98829.09;;;30.63;49.76
14966;BME280;7577;45.226;5.798;2023-06-22T01:09:15;98826.09;;;30.62;49.73
14966;BME280;7577;45.226;5.798;2023-06-22T01:11:48;98816.84;;;30.62;49.71
14966;BME280;7577;45.226;5.798;2023-06-22T01:17:00;98807.19;;;30.63;49.71
14966;BME280;7577;45.226;5.798;2023-06-22T01:19:37;98812.82;;;30.59;49.66
14966;BME280;7577;45.226;5.798;2023-06-22T01:22:08;98806.61;;;30.60;49.64
14966;BME280;7577;45.226;5.798;2023-06-22T01:27:32;98785.91;;;30.58;49.69
14966;BME280;7577;45.226;5.798;2023-06-22T01:30:06;98795.33;;;30.56;49.66
14966;BME280;7577;45.226;5.798;2023-06-22T01:32:40;98799.98;;;30.55;49.68
14966;BME280;7577;45.226;5.798;2023-06-22T01:35:12;98794.35;;;30.55;49.68
14966;BME280;7577;45.226;5.798;2023-06-22T01:37:42;98802.78;;;30.55;49.71
14966;BME280;7577;45.226;5.798;2023-06-22T01:42:51;98804.20;;;30.55;49.71
14966;BME280;7577;45.226;5.798;2023-06-22T01:45:22;98815.61;;;30.52;49.69
14966;BME280;7577;45.226;5.798;2023-06-22T01:47:52;98810.61;;;30.52;49.68
14966;BME280;7577;45.226;5.798;2023-06-22T01:50:23;98807.80;;;30.52;49.66
14966;BME280;7577;45.226;5.798;2023-06-22T01:52:53;98803.97;;;30.50;49.66
14966;BME280;7577;45.226;5.798;2023-06-22T01:58:01;98809.01;;;30.51;49.63
14966;BME280;7577;45.226;5.798;2023-06-22T02:03:17;98818.23;;;30.51;49.68
14966;BME280;7577;45.226;5.798;2023-06-22T02:05:50;98821.05;;;30.48;49.69
14966;BME280;7577;45.226;5.798;2023-06-22T02:08:22;98819.83;;;30.49;49.68
14966;BME280;7577;45.226;5.798;2023-06-22T02:10:55;98813.42;;;30.48;49.69
14966;BME280;7577;45.226;5.798;2023-06-22T02:13:26;98828.06;;;30.48;49.70
14966;BME280;7577;45.226;5.798;2023-06-22T02:15:57;98826.47;;;30.47;49.71
14966;BME280;7577;45.226;5.798;2023-06-22T02:18:27;98816.83;;;30.48;49.69
14966;BME280;7577;45.226;5.798;2023-06-22T02:20:57;98819.22;;;30.46;49.70
14966;BME280;7577;45.226;5.798;2023-06-22T02:26:05;98810.39;;;30.47;49.65
14966;BME280;7577;45.226;5.798;2023-06-22T02:28:35;98827.45;;;30.45;49.65
14966;BME280;7577;45.226;5.798;2023-06-22T02:31:05;98831.28;;;30.43;49.67
14966;BME280;7577;45.226;5.798;2023-06-22T02:33:35;98818.63;;;30.43;49.64
14966;BME280;7577;45.226;5.798;2023-06-22T02:36:06;98816.41;;;30.42;49.63
14966;BME280;7577;45.226;5.798;2023-06-22T02:38:37;98821.44;;;30.43;49.61
14966;BME280;7577;45.226;5.798;2023-06-22T02:41:07;98817.03;;;30.42;49.63
14966;BME280;7577;45.226;5.798;2023-06-22T02:43:39;98811.41;;;30.42;49.63
14966;BME280;7577;45.226;5.798;2023-06-22T02:48:51;98820.63;;;30.42;49.63
14966;BME280;7577;45.226;5.798;2023-06-22T02:51:21;98823.83;;;30.41;49.58
14966;BME280;7577;45.226;5.798;2023-06-22T02:56:29;98823.23;;;30.41;49.60
14966;BME280;7577;45.226;5.798;2023-06-22T02:59:00;98812.78;;;30.38;49.58
14966;BME280;7577;45.226;5.798;2023-06-22T03:04:09;98805.98;;;30.39;49.57
14966;BME280;7577;45.226;5.798;2023-06-22T03:06:39;98824.84;;;30.35;49.56
14966;BME280;7577;45.226;5.798;2023-06-22T03:11:47;98823.23;;;30.38;49.53
14966;BME280;7577;45.226;5.798;2023-06-22T03:16:55;98820.83;;;30.36;49.55
14966;BME280;7577;45.226;5.798;2023-06-22T03:19:27;98825.83;;;30.33;49.53
14966;BME280;7577;45.226;5.798;2023-06-22T03:21:59;98836.05;;;30.32;49.52
14966;BME280;7577;45.226;5.798;2023-06-22T03:24:29;98835.47;;;30.32;49.52
14966;BME280;7577;45.226;5.798;2023-06-22T03:26:59;98832.66;;;30.32;49.52
14966;BME280;7577;45.226;5.798;2023-06-22T03:32:10;98834.06;;;30.32;49.55
14966;BME280;7577;45.226;5.798;2023-06-22T03:34:40;98841.48;;;30.31;49.53
14966;BME280;7577;45.226;5.798;2023-06-22T03:37:12;98844.09;;;30.30;49.54
14966;BME280;7577;45.226;5.798;2023-06-22T03:42:24;98877.83;;;30.30;49.55
14966;BME280;7577;45.226;5.798;2023-06-22T03:47:32;98945.48;;;30.31;49.58
14966;BME280;7577;45.226;5.798;2023-06-22T03:50:02;98971.56;;;30.28;49.59
14966;BME280;7577;45.226;5.798;2023-06-22T03:55:14;98972.96;;;30.28;49.59
14966;BME280;7577;45.226;5.798;2023-06-22T03:57:44;98982.98;;;30.25;49.53
14966;BME280;7577;45.226;5.798;2023-06-22T04:00:15;99002.66;;;30.25;49.51
14966;BME280;7577;45.226;5.798;2023-06-22T04:02:45;99020.14;;;30.25;49.48
14966;BME280;7577;45.226;5.798;2023-06-22T04:07:53;99057.27;;;30.24;49.41
14966;BME280;7577;45.226;5.798;2023-06-22T04:10:23;99050.63;;;30.23;49.42
14966;BME280;7577;45.226;5.798;2023-06-22T04:12:53;99084.98;;;30.22;49.44
14966;BME280;7577;45.226;5.798;2023-06-22T04:18:01;99080.34;;;30.24;49.43
14966;BME280;7577;45.226;5.798;2023-06-22T04:20:32;99093.59;;;30.20;49.43
14966;BME280;7577;45.226;5.798;2023-06-22T04:25:40;99107.23;;;30.21;49.43
14966;BME280;7577;45.226;5.798;2023-06-22T04:28:10;99107.21;;;30.18;49.42
14966;BME280;7577;45.226;5.798;2023-06-22T04:33:19;99126.50;;;30.19;49.48
14966;BME280;7577;45.226;5.798;2023-06-22T04:35:49;99144.33;;;30.17;49.48
14966;BME280;7577;45.226;5.798;2023-06-22T04:38:19;99144.33;;;30.17;49.60
14966;BME280;7577;45.226;5.798;2023-06-22T04:40:51;99132.51;;;30.18;49.77
14966;BME280;7577;45.226;5.798;2023-06-22T04:43:21;99129.88;;;30.15;49.79
14966;BME280;7577;45.226;5.798;2023-06-22T04:45:52;99147.45;;;30.09;49.86
14966;BME280;7577;45.226;5.798;2023-06-22T04:48:21;99118.72;;;30.06;50.07
14966;BME280;7577;45.226;5.798;2023-06-22T04:50:51;99080.19;;;30.03;50.36
14966;BME280;7577;45.226;5.798;2023-06-22T04:55:59;99049.78;;;29.92;50.64
14966;BME280;7577;45.226;5.798;2023-06-22T04:58:29;99024.05;;;29.86;51.07
14966;BME280;7577;45.226;5.798;2023-06-22T05:01:01;99034.25;;;29.81;50.84
14966;BME280;7577;45.226;5.798;2023-06-22T05:06:11;99035.33;;;29.63;50.85
14966;BME280;7577;45.226;5.798;2023-06-22T05:08:43;99015.11;;;29.50;50.99
14966;BME280;7577;45.226;5.798;2023-06-22T05:13:50;99014.22;;;29.39;51.34
14966;BME280;7577;45.226;5.798;2023-06-22T05:16:21;99011.16;;;29.35;51.50
14966;BME280;7577;45.226;5.798;2023-06-22T05:21:32;99019.83;;;29.19;50.94
14966;BME280;7577;45.226;5.798;2023-06-22T05:24:03;99022.84;;;29.00;51.71
14966;BME280;7577;45.226;5.798;2023-06-22T05:26:34;99009.45;;;28.90;52.32
14966;BME280;7577;45.226;5.798;2023-06-22T05:29:04;98999.78;;;28.84;52.17
14966;BME280;7577;45.226;5.798;2023-06-22T05:31:35;99006.56;;;28.80;52.17
14966;BME280;7577;45.226;5.798;2023-06-22T05:34:05;99010.15;;;28.80;52.33
14966;BME280;7577;45.226;5.798;2023-06-22T05:36:36;99004.38;;;28.83;52.46
14966;BME280;7577;45.226;5.798;2023-06-22T05:41:50;99001.22;;;28.88;52.42
14966;BME280;7577;45.226;5.798;2023-06-22T05:44:21;99017.84;;;28.87;52.34
14966;BME280;7577;45.226;5.798;2023-06-22T05:49:28;99033.86;;;28.99;52.73
14966;BME280;7577;45.226;5.798;2023-06-22T05:52:00;99039.81;;;28.98;52.82
14966;BME280;7577;45.226;5.798;2023-06-22T05:54:31;99044.27;;;28.99;52.89
14966;BME280;7577;45.226;5.798;2023-06-22T05:57:01;99036.66;;;28.99;52.95
14966;BME280;7577;45.226;5.798;2023-06-22T05:59:31;99037.66;;;29.01;53.04
14966;BME280;7577;45.226;5.798;2023-06-22T06:02:01;99031.47;;;29.01;52.87
14966;BME280;7577;45.226;5.798;2023-06-22T06:04:31;99008.64;;;29.03;53.05
14966;BME280;7577;45.226;5.798;2023-06-22T06:07:01;99015.86;;;29.04;53.00
14966;BME280;7577;45.226;5.798;2023-06-22T06:12:10;99028.51;;;29.07;53.06
14966;BME280;7577;45.226;5.798;2023-06-22T06:17:17;99005.98;;;28.84;53.94
14966;BME280;7577;45.226;5.798;2023-06-22T06:19:47;98984.85;;;28.73;54.59
14966;BME280;7577;45.226;5.798;2023-06-22T06:22:17;98977.05;;;28.76;54.51
14966;BME280;7577;45.226;5.798;2023-06-22T06:24:50;98984.71;;;28.79;54.63
14966;BME280;7577;45.226;5.798;2023-06-22T06:27:21;98984.22;;;28.90;54.29
14966;BME280;7577;45.226;5.798;2023-06-22T06:29:53;98984.66;;;28.92;54.15
14966;BME280;7577;45.226;5.798;2023-06-22T06:32:22;98975.36;;;29.01;53.99
14966;BME280;7577;45.226;5.798;2023-06-22T06:34:53;98984.19;;;29.03;53.93
14966;BME280;7577;45.226;5.798;2023-06-22T06:37:22;98990.70;;;29.11;53.75
14966;BME280;7577;45.226;5.798;2023-06-22T06:42:30;98985.57;;;29.20;53.53
14966;BME280;7577;45.226;5.798;2023-06-22T06:45:00;98984.95;;;29.20;53.47
14966;BME280;7577;45.226;5.798;2023-06-22T06:50:10;98970.42;;;29.28;53.33
14966;BME280;7577;45.226;5.798;2023-06-22T06:52:40;99001.69;;;29.30;53.26
14966;BME280;7577;45.226;5.798;2023-06-22T06:55:11;99003.30;;;29.31;53.18
14966;BME280;7577;45.226;5.798;2023-06-22T06:57:42;98999.30;;;29.32;53.18
14966;BME280;7577;45.226;5.798;2023-06-22T07:00:14;98990.11;;;29.35;53.13
14966;BME280;7577;45.226;5.798;2023-06-22T07:02:45;99005.34;;;29.34;53.13
14966;BME280;7577;45.226;5.798;2023-06-22T07:05:17;98981.69;;;29.35;53.15
14966;BME280;7577;45.226;5.798;2023-06-22T07:07:47;98972.69;;;29.35;53.16
14966;BME280;7577;45.226;5.798;2023-06-22T07:10:17;98951.02;;;29.36;53.18
14966;BME280;7577;45.226;5.798;2023-06-22T07:12:47;98952.23;;;29.38;53.15
14966;BME280;7577;45.226;5.798;2023-06-22T07:15:17;98975.31;;;29.38;53.17
14966;BME280;7577;45.226;5.798;2023-06-22T07:17:47;98980.30;;;29.38;53.16
14966;BME280;7577;45.226;5.798;2023-06-22T07:20:17;98984.14;;;29.40;53.13
14966;BME280;7577;45.226;5.798;2023-06-22T07:22:48;98980.13;;;29.41;53.11
14966;BME280;7577;45.226;5.798;2023-06-22T07:25:19;98981.77;;;29.42;53.03
14966;BME280;7577;45.226;5.798;2023-06-22T07:30:35;98970.94;;;29.44;53.02
14966;BME280;7577;45.226;5.798;2023-06-22T07:35:43;99009.03;;;29.45;53.01
14966;BME280;7577;45.226;5.798;2023-06-22T07:38:13;99032.70;;;29.44;53.00
14966;BME280;7577;45.226;5.798;2023-06-22T07:40:44;98997.02;;;29.44;53.09
14966;BME280;7577;45.226;5.798;2023-06-22T07:43:14;98925.01;;;29.42;53.12
14966;BME280;7577;45.226;5.798;2023-06-22T07:45:49;98938.26;;;29.42;53.14
14966;BME280;7577;45.226;5.798;2023-06-22T07:48:22;98951.67;;;29.42;53.12
14966;BME280;7577;45.226;5.798;2023-06-22T07:50:52;98957.91;;;29.42;53.07
14966;BME280;7577;45.226;5.798;2023-06-22T07:53:22;98975.33;;;29.41;53.00
14966;BME280;7577;45.226;5.798;2023-06-22T07:55:53;99012.25;;;29.43;52.82
14966;BME280;7577;45.226;5.798;2023-06-22T07:58:23;99006.23;;;29.45;52.53
14966;BME280;7577;45.226;5.798;2023-06-22T08:00:53;98978.57;;;29.43;52.33
14966;BME280;7577;45.226;5.798;2023-06-22T08:03:23;98948.09;;;29.45;52.22
14966;BME280;7577;45.226;5.798;2023-06-22T08:05:52;98952.52;;;29.46;51.96
14966;BME280;7577;45.226;5.798;2023-06-22T08:08:22;98964.13;;;29.45;51.83
14966;BME280;7577;45.226;5.798;2023-06-22T08:10:52;98977.57;;;29.45;51.63
14966;BME280;7577;45.226;5.798;2023-06-22T08:13:22;98992.43;;;29.46;51.47
14966;BME280;7577;45.226;5.798;2023-06-22T08:18:30;98978.39;;;29.46;51.08
14966;BME280;7577;45.226;5.798;2023-06-22T08:21:01;98977.95;;;29.44;50.97
14966;BME280;7577;45.226;5.798;2023-06-22T08:23:31;98990.00;;;29.44;50.85
14966;BME280;7577;45.226;5.798;2023-06-22T08:26:01;99014.45;;;29.44;50.75
14966;BME280;7577;45.226;5.798;2023-06-22T08:28:31;99013.66;;;29.43;50.71
14966;BME280;7577;45.226;5.798;2023-06-22T08:31:01;99017.87;;;29.43;50.60
14966;BME280;7577;45.226;5.798;2023-06-22T08:33:31;99031.29;;;29.44;50.39
14966;BME280;7577;45.226;5.798;2023-06-22T08:36:01;99022.28;;;29.44;50.36
14966;BME280;7577;45.226;5.798;2023-06-22T08:38:31;99018.66;;;29.44;50.20
14966;BME280;7577;45.226;5.798;2023-06-22T08:41:01;99006.03;;;29.44;50.12
14966;BME280;7577;45.226;5.798;2023-06-22T08:43:32;98995.23;;;29.46;50.15
14966;BME280;7577;45.226;5.798;2023-06-22T08:46:02;99000.23;;;29.46;50.08
14966;BME280;7577;45.226;5.798;2023-06-22T08:48:32;99021.48;;;29.47;50.16
14966;BME280;7577;45.226;5.798;2023-06-22T08:51:02;99035.94;;;29.46;49.86
14966;BME280;7577;45.226;5.798;2023-06-22T08:53:32;99023.51;;;29.47;49.80
14966;BME280;7577;45.226;5.798;2023-06-22T08:56:04;99003.47;;;29.48;49.86
14966;BME280;7577;45.226;5.798;2023-06-22T08:58:34;99008.47;;;29.49;49.67
14966;BME280;7577;45.226;5.798;2023-06-22T09:01:04;99019.70;;;29.49;49.65
14966;BME280;7577;45.226;5.798;2023-06-22T09:03:34;99025.94;;;29.48;49.65
14966;BME280;7577;45.226;5.798;2023-06-22T09:06:06;99022.30;;;29.48;49.58
14966;BME280;7577;45.226;5.798;2023-06-22T09:08:37;99028.36;;;29.50;49.64
14966;BME280;7577;45.226;5.798;2023-06-22T09:11:08;99025.11;;;29.48;49.49
14966;BME280;7577;45.226;5.798;2023-06-22T09:13:38;99033.73;;;29.49;49.39
14966;BME280;7577;45.226;5.798;2023-06-22T09:16:08;99034.36;;;29.48;49.34
14966;BME280;7577;45.226;5.798;2023-06-22T09:18:39;99047.19;;;29.49;49.31
14966;BME280;7577;45.226;5.798;2023-06-22T09:21:09;99046.42;;;29.52;49.40
14966;BME280;7577;45.226;5.798;2023-06-22T09:23:39;99050.22;;;29.54;49.46
14966;BME280;7577;45.226;5.798;2023-06-22T09:26:09;99044.02;;;29.54;49.55
14966;BME280;7577;45.226;5.798;2023-06-22T09:31:17;99044.08;;;29.58;49.43
14966;BME280;7577;45.226;5.798;2023-06-22T09:33:50;99050.45;;;29.55;49.50
14966;BME280;7577;45.226;5.798;2023-06-22T09:38:58;99051.53;;;29.60;49.51
14966;BME280;7577;45.226;5.798;2023-06-22T09:41:30;99063.96;;;29.59;49.49
14966;BME280;7577;45.226;5.798;2023-06-22T09:43:59;99045.71;;;29.59;49.49
14966;BME280;7577;45.226;5.798;2023-06-22T09:46:29;99021.03;;;29.58;49.47
14966;BME280;7577;45.226;5.798;2023-06-22T09:48:59;99023.66;;;29.61;49.60
14966;BME280;7577;45.226;5.798;2023-06-22T09:51:29;99045.53;;;29.61;49.56
14966;BME280;7577;45.226;5.798;2023-06-22T09:54:00;99065.01;;;29.64;49.63
14966;BME280;7577;45.226;5.798;2023-06-22T09:56:30;99074.04;;;29.67;49.66
14966;BME280;7577;45.226;5.798;2023-06-22T09:59:00;99078.25;;;29.67;49.67
14966;BME280;7577;45.226;5.798;2023-06-22T10:01:30;99081.88;;;29.67;49.66
14966;BME280;7577;45.226;5.798;2023-06-22T10:03:59;99072.44;;;29.66;49.61
14966;BME280;7577;45.226;5.798;2023-06-22T10:06:30;99072.81;;;29.64;49.62
14966;BME280;7577;45.226;5.798;2023-06-22T10:08:59;99072.61;;;29.63;49.69
14966;BME280;7577;45.226;5.798;2023-06-22T10:11:29;99029.86;;;29.60;49.80
14966;BME280;7577;45.226;5.798;2023-06-22T10:14:00;99012.22;;;29.60;49.89
14966;BME280;7577;45.226;5.798;2023-06-22T10:19:12;99078.41;;;29.61;49.94
14966;BME280;7577;45.226;5.798;2023-06-22T10:21:43;99062.77;;;29.60;49.95
14966;BME280;7577;45.226;5.798;2023-06-22T10:24:13;99025.44;;;29.59;49.93
14966;BME280;7577;45.226;5.798;2023-06-22T10:26:43;99030.47;;;29.60;49.93
14966;BME280;7577;45.226;5.798;2023-06-22T10:29:13;99045.30;;;29.60;49.95
14966;BME280;7577;45.226;5.798;2023-06-22T10:31:44;99030.67;;;29.61;49.98
14966;BME280;7577;45.226;5.798;2023-06-22T10:34:14;99008.80;;;29.60;49.95
14966;BME280;7577;45.226;5.798;2023-06-22T10:36:43;99016.64;;;29.61;49.99
14966;BME280;7577;45.226;5.798;2023-06-22T10:39:16;98986.57;;;29.61;50.01
14966;BME280;7577;45.226;5.798;2023-06-22T10:44:24;99035.52;;;29.64;50.05
14966;BME280;7577;45.226;5.798;2023-06-22T10:46:54;99022.89;;;29.64;50.05
14966;BME280;7577;45.226;5.798;2023-06-22T10:49:24;98990.59;;;29.64;50.11
14966;BME280;7577;45.226;5.798;2023-06-22T10:51:54;98940.64;;;29.63;50.12
14966;BME280;7577;45.226;5.798;2023-06-22T10:54:24;98923.80;;;29.63;50.13
14966;BME280;7577;45.226;5.798;2023-06-22T10:56:53;98964.33;;;29.66;50.15
14966;BME280;7577;45.226;5.798;2023-06-22T10:59:23;98959.53;;;29.66;50.14
14966;BME280;7577;45.226;5.798;2023-06-22T11:01:54;98952.13;;;29.68;50.10
14966;BME280;7577;45.226;5.798;2023-06-22T11:07:03;98929.88;;;29.76;49.99
14966;BME280;7577;45.226;5.798;2023-06-22T11:09:33;98929.48;;;29.74;49.94
14966;BME280;7577;45.226;5.798;2023-06-22T11:14:42;98909.84;;;29.77;49.75
14966;BME280;7577;45.226;5.798;2023-06-22T11:17:12;98889.16;;;29.76;49.74
14966;BME280;7577;45.226;5.798;2023-06-22T11:19:42;98903.83;;;29.75;49.68
14966;BME280;7577;45.226;5.798;2023-06-22T11:24:50;98917.67;;;29.78;49.54
14966;BME280;7577;45.226;5.798;2023-06-22T11:27:20;98927.89;;;29.76;49.56
14966;BME280;7577;45.226;5.798;2023-06-22T11:29:50;98924.70;;;29.78;49.51
14966;BME280;7577;45.226;5.798;2023-06-22T11:32:22;98929.30;;;29.76;49.51
14966;BME280;7577;45.226;5.798;2023-06-22T11:34:52;98936.75;;;29.78;49.43
14966;BME280;7577;45.226;5.798;2023-06-22T11:37:22;98955.20;;;29.79;49.39
14966;BME280;7577;45.226;5.798;2023-06-22T11:39:52;98948.38;;;29.80;49.34
14966;BME280;7577;45.226;5.798;2023-06-22T11:42:23;98941.36;;;29.80;49.31
14966;BME280;7577;45.226;5.798;2023-06-22T11:44:53;98933.14;;;29.81;49.28
14966;BME280;7577;45.226;5.798;2023-06-22T11:47:23;98927.72;;;29.82;49.24
14966;BME280;7577;45.226;5.798;2023-06-22T11:49:53;98922.33;;;29.83;49.17
14966;BME280;7577;45.226;5.798;2023-06-22T11:52:23;98931.34;;;29.83;49.17
14966;BME280;7577;45.226;5.798;2023-06-22T11:54:55;98925.34;;;29.84;49.18
14966;BME280;7577;45.226;5.798;2023-06-22T11:57:25;98922.33;;;29.83;49.21
14966;BME280;7577;45.226;5.798;2023-06-22T11:59:55;98912.12;;;29.85;49.22
14966;BME280;7577;45.226;5.798;2023-06-22T12:02:24;98910.09;;;29.85;49.13
14966;BME280;7577;45.226;5.798;2023-06-22T12:04:54;98909.50;;;29.86;49.04
14966;BME280;7577;45.226;5.798;2023-06-22T12:10:07;98916.54;;;29.89;48.95
14966;BME280;7577;45.226;5.798;2023-06-22T12:12:37;98914.94;;;29.88;48.86
14966;BME280;7577;45.226;5.798;2023-06-22T12:15:09;98915.13;;;29.89;48.74
14966;BME280;7577;45.226;5.798;2023-06-22T12:17:39;98913.73;;;29.89;48.71
14966;BME280;7577;45.226;5.798;2023-06-22T12:22:49;98906.13;;;29.93;48.49
14966;BME280;7577;45.226;5.798;2023-06-22T12:25:20;98909.33;;;29.92;48.35
14966;BME280;7577;45.226;5.798;2023-06-22T12:27:50;98911.55;;;29.92;48.28
14966;BME280;7577;45.226;5.798;2023-06-22T12:30:20;98924.39;;;29.93;48.32
14966;BME280;7577;45.226;5.798;2023-06-22T12:32:50;98923.38;;;29.92;48.29
14966;BME280;7577;45.226;5.798;2023-06-22T12:35:20;98925.59;;;29.92;48.30
14966;BME280;7577;45.226;5.798;2023-06-22T12:40:32;98905.31;;;29.93;48.05
14966;BME280;7577;45.226;5.798;2023-06-22T12:45:40;98907.34;;;29.92;47.83
14966;BME280;7577;45.226;5.798;2023-06-22T12:48:10;98905.73;;;29.91;47.79
14966;BME280;7577;45.226;5.798;2023-06-22T12:50:41;98902.11;;;29.91;47.69
14966;BME280;7577;45.226;5.798;2023-06-22T12:53:11;98893.25;;;29.89;47.67
14966;BME280;7577;45.226;5.798;2023-06-22T12:55:41;98888.45;;;29.89;47.64
14966;BME280;7577;45.226;5.798;2023-06-22T13:00:52;98883.03;;;29.90;47.62
14966;BME280;7577;45.226;5.798;2023-06-22T13:06:06;98872.80;;;29.88;47.61
14966;BME280;7577;45.226;5.798;2023-06-22T13:08:36;98869.80;;;29.87;47.52
14966;BME280;7577;45.226;5.798;2023-06-22T13:13:45;98864.58;;;29.89;47.46
14966;BME280;7577;45.226;5.798;2023-06-22T13:16:15;98851.73;;;29.88;47.44
14966;BME280;7577;45.226;5.798;2023-06-22T13:18:45;98832.66;;;29.88;47.40
14966;BME280;7577;45.226;5.798;2023-06-22T13:21:15;98824.43;;;29.89;47.50
14966;BME280;7577;45.226;5.798;2023-06-22T13:23:45;98834.27;;;29.89;47.45
14966;BME280;7577;45.226;5.798;2023-06-22T13:26:15;98851.55;;;29.91;47.42
14966;BME280;7577;45.226;5.798;2023-06-22T13:28:45;98864.38;;;29.92;47.41
14966;BME280;7577;45.226;5.798;2023-06-22T13:31:15;98874.21;;;29.92;47.49
14966;BME280;7577;45.226;5.798;2023-06-22T13:33:45;98887.86;;;29.90;47.55
14966;BME280;7577;45.226;5.798;2023-06-22T13:38:54;98916.54;;;29.89;47.74
14966;BME280;7577;45.226;5.798;2023-06-22T13:41:24;98936.19;;;29.86;47.76
14966;BME280;7577;45.226;5.798;2023-06-22T13:43:54;98968.88;;;29.84;47.85
14966;BME280;7577;45.226;5.798;2023-06-22T13:46:24;98991.73;;;29.83;47.89
14966;BME280;7577;45.226;5.798;2023-06-22T13:48:54;99007.77;;;29.82;47.93
14966;BME280;7577;45.226;5.798;2023-06-22T13:51:24;99025.63;;;29.80;48.02
14966;BME280;7577;45.226;5.798;2023-06-22T13:53:54;99080.77;;;29.79;48.08
14966;BME280;7577;45.226;5.798;2023-06-22T13:56:24;99148.80;;;29.78;48.07
14966;BME280;7577;45.226;5.798;2023-06-22T13:58:54;99167.64;;;29.78;47.97
14966;BME280;7577;45.226;5.798;2023-06-22T14:01:24;99184.66;;;29.75;47.85
14966;BME280;7577;45.226;5.798;2023-06-22T14:03:54;99265.67;;;29.73;47.73
14966;BME280;7577;45.226;5.798;2023-06-22T14:06:24;99279.30;;;29.71;47.61
14966;BME280;7577;45.226;5.798;2023-06-22T14:08:54;99352.91;;;29.71;47.57
14966;BME280;7577;45.226;5.798;2023-06-22T14:11:25;99334.24;;;29.69;47.59
14966;BME280;7577;45.226;5.798;2023-06-22T14:13:56;99355.89;;;29.68;47.59
14966;BME280;7577;45.226;5.798;2023-06-22T14:19:07;99315.13;;;29.65;47.84
14966;BME280;7577;45.226;5.798;2023-06-22T14:21:37;99321.09;;;29.60;48.01
14966;BME280;7577;45.226;5.798;2023-06-22T14:24:07;99425.94;;;29.58;48.22
14966;BME280;7577;45.226;5.798;2023-06-22T14:26:37;99462.84;;;29.56;48.32
14966;BME280;7577;45.226;5.798;2023-06-22T14:29:07;99487.05;;;29.55;48.40
14966;BME280;7577;45.226;5.798;2023-06-22T14:31:38;99483.58;;;29.52;48.51
14966;BME280;7577;45.226;5.798;2023-06-22T14:34:08;99481.15;;;29.50;48.62
14966;BME280;7577;45.226;5.798;2023-06-22T14:36:37;99452.04;;;29.49;48.68
14966;BME280;7577;45.226;5.798;2023-06-22T14:39:07;99451.83;;;29.48;48.84
14966;BME280;7577;45.226;5.798;2023-06-22T14:41:38;99465.45;;;29.46;48.97
14966;BME280;7577;45.226;5.798;2023-06-22T14:44:08;99478.45;;;29.44;49.10
14966;BME280;7577;45.226;5.798;2023-06-22T14:46:37;99446.17;;;29.44;49.19
14966;BME280;7577;45.226;5.798;2023-06-22T14:49:07;99458.80;;;29.44;49.26
14966;BME280;7577;45.226;5.798;2023-06-22T14:51:37;99454.14;;;29.42;49.35
14966;BME280;7577;45.226;5.798;2023-06-22T14:54:07;99443.53;;;29.42;49.39
14966;BME280;7577;45.226;5.798;2023-06-22T14:56:37;99439.08;;;29.41;49.48
14966;BME280;7577;45.226;5.798;2023-06-22T14:59:07;99429.66;;;29.39;49.51
14966;BME280;7577;45.226;5.798;2023-06-22T15:01:37;99426.19;;;29.36;49.63
14966;BME280;7577;45.226;5.798;2023-06-22T15:04:07;99466.02;;;29.32;49.80
14966;BME280;7577;45.226;5.798;2023-06-22T15:06:37;99493.66;;;29.30;49.90
14966;BME280;7577;45.226;5.798;2023-06-22T15:11:46;99500.94;;;29.35;49.97
14966;BME280;7577;45.226;5.798;2023-06-22T15:14:16;99442.98;;;29.33;50.03
14966;BME280;7577;45.226;5.798;2023-06-22T15:16:46;99422.89;;;29.31;50.08
14966;BME280;7577;45.226;5.798;2023-06-22T15:21:55;99456.94;;;29.29;50.33
14966;BME280;7577;45.226;5.798;2023-06-22T15:27:03;99453.92;;;29.28;50.45
14966;BME280;7577;45.226;5.798;2023-06-22T15:29:33;99449.29;;;29.26;50.48
14966;BME280;7577;45.226;5.798;2023-06-22T15:34:44;99502.62;;;29.26;50.62
14966;BME280;7577;45.226;5.798;2023-06-22T15:37:14;99559.91;;;29.25;50.67
14966;BME280;7577;45.226;5.798;2023-06-22T15:39:45;99512.44;;;29.26;50.66
14966;BME280;7577;45.226;5.798;2023-06-22T15:42:16;99476.91;;;29.24;50.61
14966;BME280;7577;45.226;5.798;2023-06-22T15:44:46;99495.91;;;29.21;50.76
14966;BME280;7577;45.226;5.798;2023-06-22T15:47:16;99455.35;;;29.19;50.77
14966;BME280;7577;45.226;5.798;2023-06-22T15:49:50;99439.34;;;29.19;50.87
14966;BME280;7577;45.226;5.798;2023-06-22T15:52:20;99468.22;;;29.20;50.87
14966;BME280;7577;45.226;5.798;2023-06-22T15:54:50;99503.52;;;29.21;50.89